sensor_id;sensor_type;location;lat;lon;timestamp;pressure;altitude;pressure_sealevel;temperature;humidity
27840;BME280;15207;42.182;24.308;2023-03-13T00:00:27;99562.03;;;3.07;60.55
27840;BME280;15207;42.182;24.308;2023-03-13T00:02:53;99553.69;;;2.95;61.13
27840;BME280;15207;42.182;24.308;2023-03-13T00:05:18;99564.34;;;2.94;61.10
27840;BME280;15207;42.182;24.308;2023-03-13T00:07:43;99558.13;;;2.95;61.03
27840;BME280;15207;42.182;24.308;2023-03-13T00:10:09;99559.25;;;3.10;60.57
27840;BME280;15207;42.182;24.308;2023-03-13T00:12:34;99559.19;;;3.11;60.87
27840;BME280;15207;42.182;24.308;2023-03-13T00:15:00;99560.94;;;3.11;59.59
27840;BME280;15207;42.182;24.308;2023-03-13T00:17:25;99572.88;;;3.00;60.68
27840;BME280;15207;42.182;24.308;2023-03-13T00:19:51;99564.09;;;3.00;60.48
27840;BME280;15207;42.182;24.308;2023-03-13T00:22:16;99570.69;;;3.10;60.47
27840;BME280;15207;42.182;24.308;2023-03-13T00:24:42;99565.69;;;3.04;60.45
27840;BME280;15207;42.182;24.308;2023-03-13T00:27:07;99581.41;;;3.07;60.70
27840;BME280;15207;42.182;24.308;2023-03-13T00:29:33;99577.56;;;2.94;60.47
27840;BME280;15207;42.182;24.308;2023-03-13T00:31:59;99575.50;;;2.80;60.91
27840;BME280;15207;42.182;24.308;2023-03-13T00:34:25;99572.59;;;2.65;62.02
27840;BME280;15207;42.182;24.308;2023-03-13T00:36:52;99577.28;;;2.58;62.25
27840;BME280;15207;42.182;24.308;2023-03-13T00:39:19;99578.59;;;2.48;61.99
27840;BME280;15207;42.182;24.308;2023-03-13T00:41:44;99583.88;;;2.48;61.69
27840;BME280;15207;42.182;24.308;2023-03-13T00:44:10;99578.47;;;2.51;61.02
27840;BME280;15207;42.182;24.308;2023-03-13T00:46:36;99578.78;;;2.43;62.92
27840;BME280;15207;42.182;24.308;2023-03-13T00:49:02;99584.44;;;2.34;63.29
27840;BME280;15207;42.182;24.308;2023-03-13T00:51:28;99580.19;;;2.30;63.52
27840;BME280;15207;42.182;24.308;2023-03-13T00:53:58;99573.97;;;2.31;63.93
27840;BME280;15207;42.182;24.308;2023-03-13T00:56:28;99569.16;;;2.20;64.77
27840;BME280;15207;42.182;24.308;2023-03-13T00:58:54;99572.31;;;2.28;65.13
27840;BME280;15207;42.182;24.308;2023-03-13T01:01:23;99573.81;;;2.35;64.37
27840;BME280;15207;42.182;24.308;2023-03-13T01:03:52;99572.88;;;2.14;64.39
27840;BME280;15207;42.182;24.308;2023-03-13T01:06:20;99574.97;;;2.06;65.78
27840;BME280;15207;42.182;24.308;2023-03-13T01:08:46;99582.22;;;2.01;66.60
27840;BME280;15207;42.182;24.308;2023-03-13T01:11:17;99574.22;;;2.02;66.79
27840;BME280;15207;42.182;24.308;2023-03-13T01:13:43;99572.25;;;1.85;67.63
27840;BME280;15207;42.182;24.308;2023-03-13T01:16:14;99583.91;;;1.79;68.15
27840;BME280;15207;42.182;24.308;2023-03-13T01:18:43;99587.69;;;1.72;68.61
27840;BME280;15207;42.182;24.308;2023-03-13T01:21:09;99586.28;;;1.63;69.51
27840;BME280;15207;42.182;24.308;2023-03-13T01:23:35;99590.88;;;1.58;69.20
27840;BME280;15207;42.182;24.308;2023-03-13T01:26:04;99585.94;;;1.49;69.00
27840;BME280;15207;42.182;24.308;2023-03-13T01:28:30;99591.53;;;1.39;69.26
27840;BME280;15207;42.182;24.308;2023-03-13T01:30:56;99586.22;;;1.41;69.98
27840;BME280;15207;42.182;24.308;2023-03-13T01:33:22;99595.84;;;1.42;70.55
27840;BME280;15207;42.182;24.308;2023-03-13T01:35:47;99585.09;;;1.48;70.89
27840;BME280;15207;42.182;24.308;2023-03-13T01:38:14;99582.78;;;1.39;70.68
27840;BME280;15207;42.182;24.308;2023-03-13T01:40:45;99580.97;;;1.39;71.07
27840;BME280;15207;42.182;24.308;2023-03-13T01:43:25;99587.00;;;1.43;70.29
27840;BME280;15207;42.182;24.308;2023-03-13T01:53:47;99592.66;;;1.34;70.04
27840;BME280;15207;42.182;24.308;2023-03-13T01:56:16;99593.25;;;1.40;69.92
27840;BME280;15207;42.182;24.308;2023-03-13T01:58:44;99598.44;;;1.43;69.38
27840;BME280;15207;42.182;24.308;2023-03-13T02:01:10;99605.84;;;1.34;70.02
27840;BME280;15207;42.182;24.308;2023-03-13T02:03:37;99606.41;;;1.42;70.01
27840;BME280;15207;42.182;24.308;2023-03-13T02:06:03;99602.84;;;1.43;69.64
27840;BME280;15207;42.182;24.308;2023-03-13T02:08:41;99608.31;;;1.38;68.57
27840;BME280;15207;42.182;24.308;2023-03-13T02:13:38;99615.47;;;0.84;70.62
27840;BME280;15207;42.182;24.308;2023-03-13T02:16:05;99623.19;;;0.63;71.63
27840;BME280;15207;42.182;24.308;2023-03-13T02:18:30;99625.63;;;0.69;72.81
27840;BME280;15207;42.182;24.308;2023-03-13T02:21:05;99624.84;;;0.92;72.10
27840;BME280;15207;42.182;24.308;2023-03-13T02:23:47;99622.41;;;1.12;72.22
27840;BME280;15207;42.182;24.308;2023-03-13T02:26:15;99636.25;;;1.18;71.67
27840;BME280;15207;42.182;24.308;2023-03-13T02:28:40;99636.97;;;1.24;71.75
27840;BME280;15207;42.182;24.308;2023-03-13T02:31:07;99647.66;;;1.21;71.39
27840;BME280;15207;42.182;24.308;2023-03-13T02:33:42;99653.03;;;1.17;71.04
27840;BME280;15207;42.182;24.308;2023-03-13T02:36:08;99653.84;;;0.92;71.95
27840;BME280;15207;42.182;24.308;2023-03-13T02:38:42;99658.72;;;0.51;73.60
27840;BME280;15207;42.182;24.308;2023-03-13T02:41:10;99658.31;;;0.35;75.01
27840;BME280;15207;42.182;24.308;2023-03-13T02:43:37;99669.34;;;0.19;76.13
27840;BME280;15207;42.182;24.308;2023-03-13T02:48:38;99673.47;;;0.28;77.31
27840;BME280;15207;42.182;24.308;2023-03-13T02:51:11;99683.09;;;0.29;77.40
27840;BME280;15207;42.182;24.308;2023-03-13T02:53:37;99680.50;;;0.28;78.31
27840;BME280;15207;42.182;24.308;2023-03-13T02:56:03;99683.03;;;0.31;78.22
27840;BME280;15207;42.182;24.308;2023-03-13T02:58:34;99699.56;;;0.36;77.61
27840;BME280;15207;42.182;24.308;2023-03-13T03:00:59;99693.78;;;0.24;77.19
27840;BME280;15207;42.182;24.308;2023-03-13T03:03:31;99696.13;;;0.34;77.84
27840;BME280;15207;42.182;24.308;2023-03-13T03:05:57;99701.94;;;0.45;77.36
27840;BME280;15207;42.182;24.308;2023-03-13T03:08:22;99710.53;;;0.52;75.84
27840;BME280;15207;42.182;24.308;2023-03-13T03:10:48;99713.97;;;0.54;75.84
27840;BME280;15207;42.182;24.308;2023-03-13T03:13:13;99705.03;;;0.58;74.63
27840;BME280;15207;42.182;24.308;2023-03-13T03:15:39;99712.97;;;0.58;74.72
27840;BME280;15207;42.182;24.308;2023-03-13T03:18:04;99715.69;;;0.55;74.96
27840;BME280;15207;42.182;24.308;2023-03-13T03:20:30;99724.69;;;0.48;75.11
27840;BME280;15207;42.182;24.308;2023-03-13T03:22:55;99728.28;;;0.45;75.15
27840;BME280;15207;42.182;24.308;2023-03-13T03:25:21;99724.06;;;0.39;75.68
27840;BME280;15207;42.182;24.308;2023-03-13T03:27:46;99724.91;;;0.42;76.15
27840;BME280;15207;42.182;24.308;2023-03-13T03:30:12;99722.09;;;0.46;75.66
27840;BME280;15207;42.182;24.308;2023-03-13T03:32:37;99730.72;;;0.51;75.44
27840;BME280;15207;42.182;24.308;2023-03-13T03:35:03;99741.16;;;0.56;75.25
27840;BME280;15207;42.182;24.308;2023-03-13T03:37:28;99741.25;;;0.53;74.00
27840;BME280;15207;42.182;24.308;2023-03-13T03:39:54;99737.63;;;0.27;75.03
27840;BME280;15207;42.182;24.308;2023-03-13T03:42:19;99741.66;;;0.39;75.29
27840;BME280;15207;42.182;24.308;2023-03-13T03:44:45;99744.38;;;0.36;76.22
27840;BME280;15207;42.182;24.308;2023-03-13T03:47:10;99745.56;;;0.25;76.29
27840;BME280;15207;42.182;24.308;2023-03-13T03:49:36;99749.56;;;0.39;76.52
27840;BME280;15207;42.182;24.308;2023-03-13T03:52:01;99754.88;;;0.37;77.12
27840;BME280;15207;42.182;24.308;2023-03-13T03:54:27;99754.59;;;0.47;76.24
27840;BME280;15207;42.182;24.308;2023-03-13T03:56:53;99758.72;;;0.56;76.07
27840;BME280;15207;42.182;24.308;2023-03-13T03:59:19;99769.81;;;0.37;76.62
27840;BME280;15207;42.182;24.308;2023-03-13T04:01:44;99766.88;;;0.18;78.64
27840;BME280;15207;42.182;24.308;2023-03-13T04:04:09;99771.56;;;0.38;79.38
27840;BME280;15207;42.182;24.308;2023-03-13T04:06:35;99777.09;;;0.29;79.66
27840;BME280;15207;42.182;24.308;2023-03-13T04:09:00;99773.22;;;0.10;81.19
27840;BME280;15207;42.182;24.308;2023-03-13T04:11:26;99772.06;;;0.21;81.08
27840;BME280;15207;42.182;24.308;2023-03-13T04:13:51;99771.09;;;0.23;80.74
27840;BME280;15207;42.182;24.308;2023-03-13T04:16:17;99781.44;;;0.31;79.98
27840;BME280;15207;42.182;24.308;2023-03-13T04:18:42;99783.25;;;0.28;77.70
27840;BME280;15207;42.182;24.308;2023-03-13T04:21:07;99778.88;;;0.28;77.62
27840;BME280;15207;42.182;24.308;2023-03-13T04:23:33;99789.94;;;0.39;77.68
27840;BME280;15207;42.182;24.308;2023-03-13T04:25:58;99793.97;;;0.21;76.82
27840;BME280;15207;42.182;24.308;2023-03-13T04:28:24;99805.22;;;0.28;77.22
27840;BME280;15207;42.182;24.308;2023-03-13T04:30:49;99799.66;;;0.39;77.38
27840;BME280;15207;42.182;24.308;2023-03-13T04:33:15;99796.97;;;0.41;77.33
27840;BME280;15207;42.182;24.308;2023-03-13T04:35:40;99800.38;;;0.12;77.54
27840;BME280;15207;42.182;24.308;2023-03-13T04:38:05;99804.22;;;0.01;79.20
27840;BME280;15207;42.182;24.308;2023-03-13T04:40:31;99803.56;;;-0.08;80.31
27840;BME280;15207;42.182;24.308;2023-03-13T04:42:56;99801.25;;;-0.20;80.83
27840;BME280;15207;42.182;24.308;2023-03-13T04:45:22;99808.88;;;-0.09;80.22
27840;BME280;15207;42.182;24.308;2023-03-13T04:47:47;99814.81;;;-0.03;79.55
27840;BME280;15207;42.182;24.308;2023-03-13T04:50:13;99813.72;;;0.06;78.95
27840;BME280;15207;42.182;24.308;2023-03-13T04:52:38;99825.56;;;0.23;78.10
27840;BME280;15207;42.182;24.308;2023-03-13T04:55:04;99831.56;;;0.28;76.71
27840;BME280;15207;42.182;24.308;2023-03-13T04:57:30;99835.41;;;0.48;76.65
27840;BME280;15207;42.182;24.308;2023-03-13T04:59:55;99830.81;;;0.55;75.16
27840;BME280;15207;42.182;24.308;2023-03-13T05:02:21;99836.53;;;0.71;75.40
27840;BME280;15207;42.182;24.308;2023-03-13T05:04:46;99846.13;;;0.73;74.72
27840;BME280;15207;42.182;24.308;2023-03-13T05:07:12;99840.84;;;0.73;73.89
27840;BME280;15207;42.182;24.308;2023-03-13T05:09:37;99849.38;;;0.82;73.96
27840;BME280;15207;42.182;24.308;2023-03-13T05:12:03;99854.69;;;0.80;73.96
27840;BME280;15207;42.182;24.308;2023-03-13T05:14:28;99863.16;;;0.91;74.54
27840;BME280;15207;42.182;24.308;2023-03-13T05:16:54;99858.56;;;0.98;73.48
27840;BME280;15207;42.182;24.308;2023-03-13T05:19:19;99860.53;;;0.91;74.27
27840;BME280;15207;42.182;24.308;2023-03-13T05:21:45;99862.00;;;1.00;74.62
27840;BME280;15207;42.182;24.308;2023-03-13T05:24:10;99867.22;;;1.03;74.95
27840;BME280;15207;42.182;24.308;2023-03-13T05:26:35;99871.53;;;1.06;74.66
27840;BME280;15207;42.182;24.308;2023-03-13T05:29:01;99863.63;;;1.33;74.22
27840;BME280;15207;42.182;24.308;2023-03-13T05:31:26;99873.19;;;1.64;73.20
27840;BME280;15207;42.182;24.308;2023-03-13T05:33:52;99880.16;;;1.94;72.92
27840;BME280;15207;42.182;24.308;2023-03-13T05:36:17;99878.22;;;2.50;70.97
27840;BME280;15207;42.182;24.308;2023-03-13T05:38:43;99876.03;;;3.09;69.08
27840;BME280;15207;42.182;24.308;2023-03-13T05:41:08;99881.72;;;3.44;66.49
27840;BME280;15207;42.182;24.308;2023-03-13T05:43:34;99885.56;;;4.01;64.49
27840;BME280;15207;42.182;24.308;2023-03-13T05:45:59;99889.63;;;4.31;61.15
27840;BME280;15207;42.182;24.308;2023-03-13T05:48:25;99898.16;;;4.58;60.44
27840;BME280;15207;42.182;24.308;2023-03-13T05:50:50;99894.09;;;4.89;59.93
27840;BME280;15207;42.182;24.308;2023-03-13T05:53:15;99895.03;;;4.88;59.74
27840;BME280;15207;42.182;24.308;2023-03-13T05:55:41;99899.06;;;5.36;59.11
27840;BME280;15207;42.182;24.308;2023-03-13T05:58:06;99891.41;;;5.84;55.66
27840;BME280;15207;42.182;24.308;2023-03-13T06:00:32;99899.03;;;6.09;55.07
27840;BME280;15207;42.182;24.308;2023-03-13T06:02:57;99896.59;;;6.40;54.34
27840;BME280;15207;42.182;24.308;2023-03-13T06:05:23;99901.56;;;6.64;53.09
27840;BME280;15207;42.182;24.308;2023-03-13T06:07:49;99904.97;;;7.00;52.65
27840;BME280;15207;42.182;24.308;2023-03-13T06:10:15;99909.97;;;7.06;50.39
27840;BME280;15207;42.182;24.308;2023-03-13T06:12:41;99909.31;;;7.35;49.85
27840;BME280;15207;42.182;24.308;2023-03-13T06:15:07;99905.72;;;7.83;47.56
27840;BME280;15207;42.182;24.308;2023-03-13T06:17:34;99909.97;;;8.01;46.70
27840;BME280;15207;42.182;24.308;2023-03-13T06:19:59;99906.41;;;8.17;46.24
27840;BME280;15207;42.182;24.308;2023-03-13T06:22:25;99914.25;;;8.20;46.46
27840;BME280;15207;42.182;24.308;2023-03-13T06:24:51;99914.84;;;8.40;46.16
27840;BME280;15207;42.182;24.308;2023-03-13T06:27:16;99906.28;;;8.49;45.55
27840;BME280;15207;42.182;24.308;2023-03-13T06:29:42;99916.53;;;8.57;46.47
27840;BME280;15207;42.182;24.308;2023-03-13T06:32:08;99926.78;;;8.49;48.14
27840;BME280;15207;42.182;24.308;2023-03-13T06:34:33;99917.16;;;8.46;48.15
27840;BME280;15207;42.182;24.308;2023-03-13T06:36:59;99927.06;;;8.44;49.00
27840;BME280;15207;42.182;24.308;2023-03-13T06:39:25;99918.75;;;8.34;49.11
27840;BME280;15207;42.182;24.308;2023-03-13T06:41:50;99916.09;;;8.49;48.36
27840;BME280;15207;42.182;24.308;2023-03-13T06:44:15;99920.66;;;8.32;48.84
27840;BME280;15207;42.182;24.308;2023-03-13T06:46:41;99920.78;;;8.45;48.81
27840;BME280;15207;42.182;24.308;2023-03-13T06:49:07;99915.81;;;8.39;48.97
27840;BME280;15207;42.182;24.308;2023-03-13T06:51:34;99923.03;;;8.37;48.91
27840;BME280;15207;42.182;24.308;2023-03-13T06:54:02;99914.66;;;8.43;48.58
27840;BME280;15207;42.182;24.308;2023-03-13T06:56:28;99909.03;;;8.33;48.89
27840;BME280;15207;42.182;24.308;2023-03-13T06:58:54;99919.28;;;8.55;48.43
27840;BME280;15207;42.182;24.308;2023-03-13T07:01:20;99915.06;;;8.51;48.15
27840;BME280;15207;42.182;24.308;2023-03-13T07:03:49;99916.06;;;8.79;47.12
27840;BME280;15207;42.182;24.308;2023-03-13T07:06:15;99910.53;;;8.82;45.85
27840;BME280;15207;42.182;24.308;2023-03-13T07:08:41;99918.28;;;8.87;45.66
27840;BME280;15207;42.182;24.308;2023-03-13T07:11:08;99914.06;;;9.12;45.12
27840;BME280;15207;42.182;24.308;2023-03-13T07:13:34;99920.19;;;9.42;43.22
27840;BME280;15207;42.182;24.308;2023-03-13T07:16:08;99911.94;;;9.59;41.93
27840;BME280;15207;42.182;24.308;2023-03-13T07:18:34;99924.31;;;9.75;41.17
27840;BME280;15207;42.182;24.308;2023-03-13T07:21:01;99922.56;;;9.74;41.32
27840;BME280;15207;42.182;24.308;2023-03-13T07:23:32;99928.44;;;9.66;40.13
27840;BME280;15207;42.182;24.308;2023-03-13T07:26:00;99919.00;;;9.88;40.82
27840;BME280;15207;42.182;24.308;2023-03-13T07:28:27;99924.78;;;9.82;39.82
27840;BME280;15207;42.182;24.308;2023-03-13T07:30:53;99920.09;;;9.98;39.74
27840;BME280;15207;42.182;24.308;2023-03-13T07:33:18;99924.47;;;10.40;39.01
27840;BME280;15207;42.182;24.308;2023-03-13T07:35:51;99920.66;;;10.57;37.78
27840;BME280;15207;42.182;24.308;2023-03-13T07:38:18;99921.31;;;10.74;36.85
27840;BME280;15207;42.182;24.308;2023-03-13T07:40:54;99915.63;;;10.52;37.85
27840;BME280;15207;42.182;24.308;2023-03-13T07:43:21;99912.06;;;10.39;38.30
27840;BME280;15207;42.182;24.308;2023-03-13T07:45:54;99907.81;;;10.75;37.94
27840;BME280;15207;42.182;24.308;2023-03-13T07:48:21;99905.97;;;11.02;38.21
27840;BME280;15207;42.182;24.308;2023-03-13T07:50:47;99899.84;;;10.87;37.75
27840;BME280;15207;42.182;24.308;2023-03-13T07:53:14;99910.13;;;11.06;37.53
27840;BME280;15207;42.182;24.308;2023-03-13T07:58:22;99902.84;;;10.95;37.41
27840;BME280;15207;42.182;24.308;2023-03-13T08:00:49;99900.38;;;11.05;37.09
27840;BME280;15207;42.182;24.308;2023-03-13T08:03:15;99896.72;;;11.19;36.63
27840;BME280;15207;42.182;24.308;2023-03-13T08:05:41;99889.16;;;11.37;37.06
27840;BME280;15207;42.182;24.308;2023-03-13T08:08:06;99874.25;;;11.33;36.10
27840;BME280;15207;42.182;24.308;2023-03-13T08:10:32;99874.75;;;11.14;36.77
27840;BME280;15207;42.182;24.308;2023-03-13T08:12:58;99883.16;;;11.33;36.38
27840;BME280;15207;42.182;24.308;2023-03-13T08:15:24;99865.75;;;11.39;37.12
27840;BME280;15207;42.182;24.308;2023-03-13T08:17:51;99864.84;;;11.27;37.13
27840;BME280;15207;42.182;24.308;2023-03-13T08:20:17;99863.41;;;11.59;36.77
27840;BME280;15207;42.182;24.308;2023-03-13T08:22:45;99861.47;;;11.36;36.64
27840;BME280;15207;42.182;24.308;2023-03-13T08:25:12;99865.06;;;11.24;36.16
27840;BME280;15207;42.182;24.308;2023-03-13T08:27:38;99869.44;;;11.49;36.78
27840;BME280;15207;42.182;24.308;2023-03-13T08:30:03;99875.44;;;11.29;36.39
27840;BME280;15207;42.182;24.308;2023-03-13T08:32:32;99873.22;;;11.47;36.82
27840;BME280;15207;42.182;24.308;2023-03-13T08:34:58;99883.44;;;11.90;36.59
27840;BME280;15207;42.182;24.308;2023-03-13T08:37:24;99879.91;;;12.26;35.71
27840;BME280;15207;42.182;24.308;2023-03-13T08:39:49;99884.06;;;12.30;35.34
27840;BME280;15207;42.182;24.308;2023-03-13T08:42:16;99876.66;;;11.98;35.31
27840;BME280;15207;42.182;24.308;2023-03-13T08:44:41;99869.06;;;12.27;35.17
27840;BME280;15207;42.182;24.308;2023-03-13T08:47:07;99880.47;;;11.82;35.50
27840;BME280;15207;42.182;24.308;2023-03-13T08:49:33;99875.28;;;11.92;35.46
27840;BME280;15207;42.182;24.308;2023-03-13T08:51:58;99877.78;;;11.82;36.19
27840;BME280;15207;42.182;24.308;2023-03-13T08:54:25;99872.56;;;12.16;35.45
27840;BME280;15207;42.182;24.308;2023-03-13T08:56:50;99869.84;;;12.52;35.14
27840;BME280;15207;42.182;24.308;2023-03-13T08:59:17;99871.91;;;12.72;34.27
27840;BME280;15207;42.182;24.308;2023-03-13T09:01:44;99870.69;;;12.87;33.68
27840;BME280;15207;42.182;24.308;2023-03-13T09:04:11;99865.47;;;12.86;34.35
27840;BME280;15207;42.182;24.308;2023-03-13T09:06:39;99866.41;;;13.07;34.26
27840;BME280;15207;42.182;24.308;2023-03-13T09:09:05;99866.41;;;12.73;33.58
27840;BME280;15207;42.182;24.308;2023-03-13T09:11:33;99863.59;;;12.40;33.52
27840;BME280;15207;42.182;24.308;2023-03-13T09:14:01;99867.53;;;12.59;32.97
27840;BME280;15207;42.182;24.308;2023-03-13T09:16:30;99854.44;;;12.43;33.28
27840;BME280;15207;42.182;24.308;2023-03-13T09:18:56;99859.63;;;12.22;33.32
27840;BME280;15207;42.182;24.308;2023-03-13T09:21:25;99859.53;;;11.87;34.02
27840;BME280;15207;42.182;24.308;2023-03-13T09:23:52;99856.59;;;12.26;33.57
27840;BME280;15207;42.182;24.308;2023-03-13T09:26:19;99848.69;;;12.36;33.25
27840;BME280;15207;42.182;24.308;2023-03-13T09:28:45;99844.91;;;12.85;32.92
27840;BME280;15207;42.182;24.308;2023-03-13T09:31:16;99841.88;;;12.55;32.69
27840;BME280;15207;42.182;24.308;2023-03-13T09:33:42;99842.72;;;12.78;32.76
27840;BME280;15207;42.182;24.308;2023-03-13T09:36:09;99840.88;;;12.56;33.48
27840;BME280;15207;42.182;24.308;2023-03-13T09:38:35;99836.59;;;12.42;33.35
27840;BME280;15207;42.182;24.308;2023-03-13T09:41:04;99829.75;;;12.26;33.06
27840;BME280;15207;42.182;24.308;2023-03-13T09:49:10;99819.47;;;13.00;32.22
27840;BME280;15207;42.182;24.308;2023-03-13T09:51:39;99816.94;;;12.87;32.78
27840;BME280;15207;42.182;24.308;2023-03-13T09:54:21;99816.78;;;13.12;32.37
27840;BME280;15207;42.182;24.308;2023-03-13T09:59:41;99823.78;;;12.23;32.92
27840;BME280;15207;42.182;24.308;2023-03-13T10:02:33;99819.13;;;12.13;33.08
27840;BME280;15207;42.182;24.308;2023-03-13T10:05:22;99812.69;;;12.50;32.61
27840;BME280;15207;42.182;24.308;2023-03-13T10:07:48;99809.63;;;12.89;32.72
27840;BME280;15207;42.182;24.308;2023-03-13T10:10:18;99807.66;;;12.80;32.33
27840;BME280;15207;42.182;24.308;2023-03-13T10:12:48;99809.72;;;13.11;32.09
27840;BME280;15207;42.182;24.308;2023-03-13T10:18:21;99808.16;;;12.85;31.97
27840;BME280;15207;42.182;24.308;2023-03-13T10:20:50;99804.13;;;12.91;31.65
27840;BME280;15207;42.182;24.308;2023-03-13T10:25:47;99795.22;;;12.56;33.20
27840;BME280;15207;42.182;24.308;2023-03-13T10:28:15;99798.25;;;12.86;32.82
27840;BME280;15207;42.182;24.308;2023-03-13T10:30:49;99789.72;;;12.69;31.52
27840;BME280;15207;42.182;24.308;2023-03-13T10:36:02;99793.88;;;12.27;32.03
27840;BME280;15207;42.182;24.308;2023-03-13T10:38:28;99792.50;;;12.10;31.35
27840;BME280;15207;42.182;24.308;2023-03-13T10:40:58;99783.88;;;12.52;31.10
27840;BME280;15207;42.182;24.308;2023-03-13T10:43:25;99781.06;;;12.42;30.43
27840;BME280;15207;42.182;24.308;2023-03-13T10:45:52;99779.34;;;12.19;31.49
27840;BME280;15207;42.182;24.308;2023-03-13T10:48:26;99789.59;;;12.36;31.27
27840;BME280;15207;42.182;24.308;2023-03-13T10:50:54;99767.63;;;12.08;31.21
27840;BME280;15207;42.182;24.308;2023-03-13T10:53:31;99769.94;;;12.36;31.05
27840;BME280;15207;42.182;24.308;2023-03-13T10:56:10;99753.56;;;12.73;30.96
27840;BME280;15207;42.182;24.308;2023-03-13T10:58:47;99756.94;;;13.31;30.39
27840;BME280;15207;42.182;24.308;2023-03-13T11:01:26;99753.88;;;13.47;30.63
27840;BME280;15207;42.182;24.308;2023-03-13T11:03:55;99752.88;;;13.48;29.55
27840;BME280;15207;42.182;24.308;2023-03-13T11:06:28;99753.06;;;13.23;29.08
27840;BME280;15207;42.182;24.308;2023-03-13T11:09:10;99739.06;;;13.41;29.42
27840;BME280;15207;42.182;24.308;2023-03-13T11:14:41;99736.88;;;13.35;29.32
27840;BME280;15207;42.182;24.308;2023-03-13T11:17:29;99738.41;;;13.16;30.33
27840;BME280;15207;42.182;24.308;2023-03-13T11:20:04;99734.00;;;12.82;30.01
27840;BME280;15207;42.182;24.308;2023-03-13T11:23:10;99728.88;;;12.68;30.57
27840;BME280;15207;42.182;24.308;2023-03-13T11:25:40;99723.72;;;12.88;30.67
27840;BME280;15207;42.182;24.308;2023-03-13T11:28:37;99723.47;;;12.79;30.32
27840;BME280;15207;42.182;24.308;2023-03-13T11:41:48;99690.41;;;13.12;30.43
27840;BME280;15207;42.182;24.308;2023-03-13T11:52:39;99680.47;;;12.79;30.90
27840;BME280;15207;42.182;24.308;2023-03-13T11:55:17;99669.31;;;12.95;31.09
27840;BME280;15207;42.182;24.308;2023-03-13T11:58:08;99675.28;;;13.11;30.40
27840;BME280;15207;42.182;24.308;2023-03-13T12:01:00;99665.91;;;12.93;30.52
27840;BME280;15207;42.182;24.308;2023-03-13T12:04:14;99672.69;;;12.76;30.22
27840;BME280;15207;42.182;24.308;2023-03-13T12:06:44;99665.66;;;12.52;30.88
27840;BME280;15207;42.182;24.308;2023-03-13T12:09:19;99658.75;;;12.82;30.43
27840;BME280;15207;42.182;24.308;2023-03-13T12:12:00;99662.59;;;13.01;30.83
27840;BME280;15207;42.182;24.308;2023-03-13T12:14:44;99645.38;;;12.92;29.97
27840;BME280;15207;42.182;24.308;2023-03-13T12:17:14;99644.22;;;13.28;30.15
27840;BME280;15207;42.182;24.308;2023-03-13T12:19:54;99640.56;;;13.07;29.58
27840;BME280;15207;42.182;24.308;2023-03-13T12:25:35;99641.78;;;13.03;29.71
27840;BME280;15207;42.182;24.308;2023-03-13T12:33:34;99626.19;;;12.97;30.28
27840;BME280;15207;42.182;24.308;2023-03-13T12:36:07;99629.09;;;13.05;30.21
27840;BME280;15207;42.182;24.308;2023-03-13T12:43:58;99617.81;;;13.33;30.30
27840;BME280;15207;42.182;24.308;2023-03-13T12:46:34;99620.22;;;13.15;30.37
27840;BME280;15207;42.182;24.308;2023-03-13T12:51:59;99623.38;;;13.20;30.52
27840;BME280;15207;42.182;24.308;2023-03-13T12:57:46;99614.72;;;13.38;30.05
27840;BME280;15207;42.182;24.308;2023-03-13T13:00:22;99613.56;;;13.09;30.46
27840;BME280;15207;42.182;24.308;2023-03-13T13:06:06;99621.09;;;13.36;30.27
27840;BME280;15207;42.182;24.308;2023-03-13T13:08:42;99626.66;;;13.45;30.32
27840;BME280;15207;42.182;24.308;2023-03-13T13:16:48;99621.53;;;13.42;29.34
27840;BME280;15207;42.182;24.308;2023-03-13T13:24:57;99626.00;;;13.31;30.23
27840;BME280;15207;42.182;24.308;2023-03-13T13:32:52;99603.75;;;13.29;29.52
27840;BME280;15207;42.182;24.308;2023-03-13T13:35:30;99601.69;;;13.33;29.80
27840;BME280;15207;42.182;24.308;2023-03-13T13:43:32;99598.00;;;13.13;29.85
27840;BME280;15207;42.182;24.308;2023-03-13T13:56:59;99582.44;;;12.74;29.00
27840;BME280;15207;42.182;24.308;2023-03-13T13:59:38;99582.59;;;12.93;29.83
27840;BME280;15207;42.182;24.308;2023-03-13T14:04:41;99579.38;;;13.00;29.34
27840;BME280;15207;42.182;24.308;2023-03-13T14:07:18;99581.28;;;13.09;28.89
27840;BME280;15207;42.182;24.308;2023-03-13T14:12:37;99582.53;;;13.05;29.54
27840;BME280;15207;42.182;24.308;2023-03-13T14:15:18;99571.47;;;13.29;28.88
27840;BME280;15207;42.182;24.308;2023-03-13T14:17:46;99574.06;;;13.31;29.43
27840;BME280;15207;42.182;24.308;2023-03-13T14:22:48;99567.81;;;13.52;29.01
27840;BME280;15207;42.182;24.308;2023-03-13T14:25:13;99571.69;;;13.38;29.01
27840;BME280;15207;42.182;24.308;2023-03-13T14:27:43;99565.06;;;13.42;28.94
27840;BME280;15207;42.182;24.308;2023-03-13T14:30:10;99576.53;;;13.44;29.08
27840;BME280;15207;42.182;24.308;2023-03-13T14:32:37;99563.81;;;13.46;28.76
27840;BME280;15207;42.182;24.308;2023-03-13T14:35:04;99566.38;;;13.47;28.36
27840;BME280;15207;42.182;24.308;2023-03-13T14:37:34;99564.41;;;13.49;28.31
27840;BME280;15207;42.182;24.308;2023-03-13T14:40:19;99566.34;;;13.69;28.21
27840;BME280;15207;42.182;24.308;2023-03-13T14:42:51;99561.94;;;13.68;27.98
27840;BME280;15207;42.182;24.308;2023-03-13T14:47:49;99559.50;;;13.55;27.25
27840;BME280;15207;42.182;24.308;2023-03-13T14:50:15;99559.50;;;13.65;27.49
27840;BME280;15207;42.182;24.308;2023-03-13T14:52:47;99552.53;;;13.52;27.47
27840;BME280;15207;42.182;24.308;2023-03-13T14:57:57;99556.56;;;13.68;27.69
27840;BME280;15207;42.182;24.308;2023-03-13T15:00:34;99562.03;;;13.56;27.59
27840;BME280;15207;42.182;24.308;2023-03-13T15:06:05;99559.25;;;13.46;27.02
27840;BME280;15207;42.182;24.308;2023-03-13T15:08:33;99562.63;;;13.39;26.66